sensor_id;sensor_type;location;lat;lon;timestamp;temperature;humidity
13049;DHT22;6591;51.446;5.404;2023-05-03T00:00:34;7.10;91.30
13049;DHT22;6591;51.446;5.404;2023-05-03T00:03:01;9.60;92.10
13049;DHT22;6591;51.446;5.404;2023-05-03T00:05:30;9.90;92.50
13049;DHT22;6591;51.446;5.404;2023-05-03T00:07:58;9.30;92.30
13049;DHT22;6591;51.446;5.404;2023-05-03T00:10:27;7.00;92.00
13049;DHT22;6591;51.446;5.404;2023-05-03T00:12:55;9.20;92.80
13049;DHT22;6591;51.446;5.404;2023-05-03T00:15:22;6.90;92.20
13049;DHT22;6591;51.446;5.404;2023-05-03T00:17:49;7.00;92.20
13049;DHT22;6591;51.446;5.404;2023-05-03T00:20:17;7.00;92.60
13049;DHT22;6591;51.446;5.404;2023-05-03T00:22:44;7.60;93.10
13049;DHT22;6591;51.446;5.404;2023-05-03T00:25:11;7.00;93.00
13049;DHT22;6591;51.446;5.404;2023-05-03T00:27:38;7.70;93.00
13049;DHT22;6591;51.446;5.404;2023-05-03T00:30:06;7.90;93.10
13049;DHT22;6591;51.446;5.404;2023-05-03T00:32:34;6.90;92.90
13049;DHT22;6591;51.446;5.404;2023-05-03T00:35:01;10.00;94.00
13049;DHT22;6591;51.446;5.404;2023-05-03T00:37:28;6.90;93.70
13049;DHT22;6591;51.446;5.404;2023-05-03T00:39:56;6.90;93.80
13049;DHT22;6591;51.446;5.404;2023-05-03T00:42:23;6.90;93.70
13049;DHT22;6591;51.446;5.404;2023-05-03T00:44:50;8.20;94.00
13049;DHT22;6591;51.446;5.404;2023-05-03T00:47:19;6.90;93.50
13049;DHT22;6591;51.446;5.404;2023-05-03T00:49:46;8.70;94.10
13049;DHT22;6591;51.446;5.404;2023-05-03T00:52:13;6.90;93.50
13049;DHT22;6591;51.446;5.404;2023-05-03T00:54:43;6.80;93.80
13049;DHT22;6591;51.446;5.404;2023-05-03T00:57:11;6.80;94.10
13049;DHT22;6591;51.446;5.404;2023-05-03T00:59:38;6.80;93.80
13049;DHT22;6591;51.446;5.404;2023-05-03T01:02:05;6.80;93.90
13049;DHT22;6591;51.446;5.404;2023-05-03T01:04:34;6.80;94.00
13049;DHT22;6591;51.446;5.404;2023-05-03T01:07:11;6.80;94.10
13049;DHT22;6591;51.446;5.404;2023-05-03T01:12:52;6.70;94.30
13049;DHT22;6591;51.446;5.404;2023-05-03T01:18:13;6.70;94.90
13049;DHT22;6591;51.446;5.404;2023-05-03T01:20:47;6.60;94.50
13049;DHT22;6591;51.446;5.404;2023-05-03T01:23:30;6.60;94.40
13049;DHT22;6591;51.446;5.404;2023-05-03T01:28:43;6.50;95.10
13049;DHT22;6591;51.446;5.404;2023-05-03T01:31:12;6.50;94.70
13049;DHT22;6591;51.446;5.404;2023-05-03T01:33:48;6.40;94.70
13049;DHT22;6591;51.446;5.404;2023-05-03T01:36:30;8.90;95.50
13049;DHT22;6591;51.446;5.404;2023-05-03T01:39:07;6.40;95.20
13049;DHT22;6591;51.446;5.404;2023-05-03T01:41:39;6.40;95.20
13049;DHT22;6591;51.446;5.404;2023-05-03T01:44:09;6.40;94.90
13049;DHT22;6591;51.446;5.404;2023-05-03T01:46:45;6.40;94.90
13049;DHT22;6591;51.446;5.404;2023-05-03T01:49:12;6.30;95.70
13049;DHT22;6591;51.446;5.404;2023-05-03T01:51:40;6.30;95.40
13049;DHT22;6591;51.446;5.404;2023-05-03T01:54:07;8.80;96.50
13049;DHT22;6591;51.446;5.404;2023-05-03T01:56:35;8.70;96.50
13049;DHT22;6591;51.446;5.404;2023-05-03T01:59:03;6.30;95.30
13049;DHT22;6591;51.446;5.404;2023-05-03T02:01:30;6.20;95.60
13049;DHT22;6591;51.446;5.404;2023-05-03T02:03:57;7.90;96.40
13049;DHT22;6591;51.446;5.404;2023-05-03T02:06:25;8.00;95.90
13049;DHT22;6591;51.446;5.404;2023-05-03T02:08:52;6.20;95.80
13049;DHT22;6591;51.446;5.404;2023-05-03T02:11:20;6.20;95.70
13049;DHT22;6591;51.446;5.404;2023-05-03T02:13:48;6.20;95.70
13049;DHT22;6591;51.446;5.404;2023-05-03T02:16:17;6.10;95.50
13049;DHT22;6591;51.446;5.404;2023-05-03T02:18:44;6.10;95.60
13049;DHT22;6591;51.446;5.404;2023-05-03T02:21:12;6.10;95.80
13049;DHT22;6591;51.446;5.404;2023-05-03T02:23:39;6.10;95.90
13049;DHT22;6591;51.446;5.404;2023-05-03T02:26:06;6.10;96.00
13049;DHT22;6591;51.446;5.404;2023-05-03T02:28:33;6.50;96.10
13049;DHT22;6591;51.446;5.404;2023-05-03T02:31:01;6.00;96.20
13049;DHT22;6591;51.446;5.404;2023-05-03T02:33:28;7.80;97.10
13049;DHT22;6591;51.446;5.404;2023-05-03T02:35:55;7.80;97.10
13049;DHT22;6591;51.446;5.404;2023-05-03T02:38:22;6.00;97.00
13049;DHT22;6591;51.446;5.404;2023-05-03T02:40:52;6.00;97.10
13049;DHT22;6591;51.446;5.404;2023-05-03T02:43:20;6.10;96.90
13049;DHT22;6591;51.446;5.404;2023-05-03T02:45:47;8.10;97.50
13049;DHT22;6591;51.446;5.404;2023-05-03T02:48:15;6.00;97.30
13049;DHT22;6591;51.446;5.404;2023-05-03T02:50:42;7.70;97.40
13049;DHT22;6591;51.446;5.404;2023-05-03T02:53:09;8.10;97.70
13049;DHT22;6591;51.446;5.404;2023-05-03T02:55:38;6.20;97.00
13049;DHT22;6591;51.446;5.404;2023-05-03T02:58:06;8.70;97.50
13049;DHT22;6591;51.446;5.404;2023-05-03T03:00:33;6.20;96.50
13049;DHT22;6591;51.446;5.404;2023-05-03T03:03:02;6.30;96.60
13049;DHT22;6591;51.446;5.404;2023-05-03T03:05:30;6.10;97.00
13049;DHT22;6591;51.446;5.404;2023-05-03T03:07:57;6.10;97.10
13049;DHT22;6591;51.446;5.404;2023-05-03T03:10:24;6.10;96.90
13049;DHT22;6591;51.446;5.404;2023-05-03T03:12:51;6.10;96.70
13049;DHT22;6591;51.446;5.404;2023-05-03T03:15:26;6.10;96.90
13049;DHT22;6591;51.446;5.404;2023-05-03T03:17:53;6.10;97.00
13049;DHT22;6591;51.446;5.404;2023-05-03T03:20:24;6.10;96.70
13049;DHT22;6591;51.446;5.404;2023-05-03T03:22:51;6.30;96.70
13049;DHT22;6591;51.446;5.404;2023-05-03T03:25:19;7.90;97.50
13049;DHT22;6591;51.446;5.404;2023-05-03T03:27:48;6.00;96.60
13049;DHT22;6591;51.446;5.404;2023-05-03T03:30:15;6.10;96.90
13049;DHT22;6591;51.446;5.404;2023-05-03T03:32:53;6.10;96.70
13049;DHT22;6591;51.446;5.404;2023-05-03T03:35:28;6.00;96.80
13049;DHT22;6591;51.446;5.404;2023-05-03T03:37:56;6.00;96.90
13049;DHT22;6591;51.446;5.404;2023-05-03T03:40:23;7.40;97.10
13049;DHT22;6591;51.446;5.404;2023-05-03T03:42:53;5.90;96.90
13049;DHT22;6591;51.446;5.404;2023-05-03T03:45:21;5.90;97.00
13049;DHT22;6591;51.446;5.404;2023-05-03T03:47:48;8.30;97.70
13049;DHT22;6591;51.446;5.404;2023-05-03T03:50:19;6.40;97.20
13049;DHT22;6591;51.446;5.404;2023-05-03T03:52:46;5.80;97.30
13049;DHT22;6591;51.446;5.404;2023-05-03T03:55:14;5.80;97.30
13049;DHT22;6591;51.446;5.404;2023-05-03T03:57:43;5.80;97.30
13049;DHT22;6591;51.446;5.404;2023-05-03T04:00:12;5.80;97.50
13049;DHT22;6591;51.446;5.404;2023-05-03T04:02:46;5.80;97.50
13049;DHT22;6591;51.446;5.404;2023-05-03T04:05:16;5.80;97.60
13049;DHT22;6591;51.446;5.404;2023-05-03T04:07:45;3.30;96.90
13049;DHT22;6591;51.446;5.404;2023-05-03T04:10:13;5.80;97.70
13049;DHT22;6591;51.446;5.404;2023-05-03T04:12:41;4.00;97.10
13049;DHT22;6591;51.446;5.404;2023-05-03T04:15:09;5.70;97.90
13049;DHT22;6591;51.446;5.404;2023-05-03T04:17:38;5.70;97.90
13049;DHT22;6591;51.446;5.404;2023-05-03T04:20:09;5.70;97.70
13049;DHT22;6591;51.446;5.404;2023-05-03T04:22:38;5.60;97.90
13049;DHT22;6591;51.446;5.404;2023-05-03T04:25:10;5.70;98.00
13049;DHT22;6591;51.446;5.404;2023-05-03T04:27:49;6.60;98.60
13049;DHT22;6591;51.446;5.404;2023-05-03T04:30:17;5.70;98.00
13049;DHT22;6591;51.446;5.404;2023-05-03T04:32:50;7.20;98.80
13049;DHT22;6591;51.446;5.404;2023-05-03T04:35:20;6.10;98.20
13049;DHT22;6591;51.446;5.404;2023-05-03T04:37:47;5.70;98.00
13049;DHT22;6591;51.446;5.404;2023-05-03T04:40:19;6.10;98.10
13049;DHT22;6591;51.446;5.404;2023-05-03T04:42:54;5.70;98.00
13049;DHT22;6591;51.446;5.404;2023-05-03T04:45:23;8.30;98.90
13049;DHT22;6591;51.446;5.404;2023-05-03T04:47:50;5.60;98.00
13049;DHT22;6591;51.446;5.404;2023-05-03T04:52:48;5.80;97.90
13049;DHT22;6591;51.446;5.404;2023-05-03T04:55:16;5.80;98.90
13049;DHT22;6591;51.446;5.404;2023-05-03T04:57:44;5.80;98.60
13049;DHT22;6591;51.446;5.404;2023-05-03T05:00:13;5.80;98.90
13049;DHT22;6591;51.446;5.404;2023-05-03T05:02:45;5.90;98.90
13049;DHT22;6591;51.446;5.404;2023-05-03T05:05:13;7.60;99.60
13049;DHT22;6591;51.446;5.404;2023-05-03T05:07:40;6.00;99.00
13049;DHT22;6591;51.446;5.404;2023-05-03T05:10:10;8.40;99.90
13049;DHT22;6591;51.446;5.404;2023-05-03T05:12:39;6.10;99.50
13049;DHT22;6591;51.446;5.404;2023-05-03T05:15:07;6.40;99.30
13049;DHT22;6591;51.446;5.404;2023-05-03T05:17:35;6.20;99.80
13049;DHT22;6591;51.446;5.404;2023-05-03T05:20:04;6.30;99.30
13049;DHT22;6591;51.446;5.404;2023-05-03T05:22:33;6.30;99.10
13049;DHT22;6591;51.446;5.404;2023-05-03T05:25:00;8.70;99.60
13049;DHT22;6591;51.446;5.404;2023-05-03T05:27:28;6.40;98.80
13049;DHT22;6591;51.446;5.404;2023-05-03T05:29:58;8.50;99.50
13049;DHT22;6591;51.446;5.404;2023-05-03T05:32:25;6.60;99.10
13049;DHT22;6591;51.446;5.404;2023-05-03T05:34:53;8.70;99.90
13049;DHT22;6591;51.446;5.404;2023-05-03T05:37:26;8.90;99.90
13049;DHT22;6591;51.446;5.404;2023-05-03T05:39:57;6.80;99.00
13049;DHT22;6591;51.446;5.404;2023-05-03T05:42:31;9.30;99.70
13049;DHT22;6591;51.446;5.404;2023-05-03T05:44:59;7.00;99.10
13049;DHT22;6591;51.446;5.404;2023-05-03T05:47:26;9.20;99.60
13049;DHT22;6591;51.446;5.404;2023-05-03T05:49:56;7.20;98.90
13049;DHT22;6591;51.446;5.404;2023-05-03T05:52:23;7.50;98.80
13049;DHT22;6591;51.446;5.404;2023-05-03T05:54:50;7.40;98.80
13049;DHT22;6591;51.446;5.404;2023-05-03T05:57:18;10.40;99.90
13049;DHT22;6591;51.446;5.404;2023-05-03T05:59:45;7.70;98.70
13049;DHT22;6591;51.446;5.404;2023-05-03T06:02:14;7.80;98.50
13049;DHT22;6591;51.446;5.404;2023-05-03T06:04:44;8.00;98.50
13049;DHT22;6591;51.446;5.404;2023-05-03T06:07:13;8.20;98.00
13049;DHT22;6591;51.446;5.404;2023-05-03T06:09:42;10.90;99.10
13049;DHT22;6591;51.446;5.404;2023-05-03T06:12:09;8.30;98.10
13049;DHT22;6591;51.446;5.404;2023-05-03T06:14:40;8.40;98.00
13049;DHT22;6591;51.446;5.404;2023-05-03T06:17:28;11.30;98.50
13049;DHT22;6591;51.446;5.404;2023-05-03T06:19:56;8.80;97.60
13049;DHT22;6591;51.446;5.404;2023-05-03T06:22:24;10.50;98.00
13049;DHT22;6591;51.446;5.404;2023-05-03T06:24:54;10.90;97.90
13049;DHT22;6591;51.446;5.404;2023-05-03T06:27:23;9.20;97.20
13049;DHT22;6591;51.446;5.404;2023-05-03T06:29:51;9.30;96.80
13049;DHT22;6591;51.446;5.404;2023-05-03T06:32:18;9.40;96.70
13049;DHT22;6591;51.446;5.404;2023-05-03T06:34:48;11.20;97.50
13049;DHT22;6591;51.446;5.404;2023-05-03T06:37:16;9.70;96.60
13049;DHT22;6591;51.446;5.404;2023-05-03T06:39:43;11.60;96.90
13049;DHT22;6591;51.446;5.404;2023-05-03T06:42:11;11.40;96.70
13049;DHT22;6591;51.446;5.404;2023-05-03T06:44:41;11.70;96.60
13049;DHT22;6591;51.446;5.404;2023-05-03T06:47:08;10.40;95.70
13049;DHT22;6591;51.446;5.404;2023-05-03T06:49:35;12.20;96.40
13049;DHT22;6591;51.446;5.404;2023-05-03T06:52:03;10.60;95.60
13049;DHT22;6591;51.446;5.404;2023-05-03T06:54:30;10.70;95.50
13049;DHT22;6591;51.446;5.404;2023-05-03T06:56:57;10.90;95.50
13049;DHT22;6591;51.446;5.404;2023-05-03T06:59:24;11.10;95.50
13049;DHT22;6591;51.446;5.404;2023-05-03T07:01:52;11.30;95.30
13049;DHT22;6591;51.446;5.404;2023-05-03T07:04:19;13.50;95.80
13049;DHT22;6591;51.446;5.404;2023-05-03T07:06:48;13.60;95.60
13049;DHT22;6591;51.446;5.404;2023-05-03T07:09:20;14.30;95.10
13049;DHT22;6591;51.446;5.404;2023-05-03T07:12:07;11.90;94.00
13049;DHT22;6591;51.446;5.404;2023-05-03T07:14:35;12.10;93.90
13049;DHT22;6591;51.446;5.404;2023-05-03T07:17:02;12.10;93.60
13049;DHT22;6591;51.446;5.404;2023-05-03T07:19:29;14.00;94.00
13049;DHT22;6591;51.446;5.404;2023-05-03T07:21:56;12.40;93.20
13049;DHT22;6591;51.446;5.404;2023-05-03T07:24:23;12.60;93.10
13049;DHT22;6591;51.446;5.404;2023-05-03T07:26:52;14.20;93.70
13049;DHT22;6591;51.446;5.404;2023-05-03T07:29:20;14.90;93.80
13049;DHT22;6591;51.446;5.404;2023-05-03T07:31:47;12.90;92.90
13049;DHT22;6591;51.446;5.404;2023-05-03T07:34:17;13.10;92.60
13049;DHT22;6591;51.446;5.404;2023-05-03T07:36:44;13.30;91.80
13049;DHT22;6591;51.446;5.404;2023-05-03T07:39:11;13.50;91.80
13049;DHT22;6591;51.446;5.404;2023-05-03T07:41:38;13.50;90.60
13049;DHT22;6591;51.446;5.404;2023-05-03T07:44:05;13.60;91.20
13049;DHT22;6591;51.446;5.404;2023-05-03T07:46:33;13.40;91.20
13049;DHT22;6591;51.446;5.404;2023-05-03T07:49:04;13.90;90.90
13049;DHT22;6591;51.446;5.404;2023-05-03T07:51:36;14.10;90.30
13049;DHT22;6591;51.446;5.404;2023-05-03T07:54:04;14.30;90.40
13049;DHT22;6591;51.446;5.404;2023-05-03T07:56:31;14.30;90.20
13049;DHT22;6591;51.446;5.404;2023-05-03T07:58:58;14.50;90.10
13049;DHT22;6591;51.446;5.404;2023-05-03T08:01:36;14.60;88.00
13049;DHT22;6591;51.446;5.404;2023-05-03T08:04:04;13.10;88.50
13049;DHT22;6591;51.446;5.404;2023-05-03T08:06:33;15.00;88.40
13049;DHT22;6591;51.446;5.404;2023-05-03T08:09:01;15.00;89.60
13049;DHT22;6591;51.446;5.404;2023-05-03T08:11:30;15.30;87.30
13049;DHT22;6591;51.446;5.404;2023-05-03T08:13:57;16.80;83.70
13049;DHT22;6591;51.446;5.404;2023-05-03T08:16:25;15.50;83.10
13049;DHT22;6591;51.446;5.404;2023-05-03T08:18:53;16.30;84.00
13049;DHT22;6591;51.446;5.404;2023-05-03T08:21:20;15.60;83.10
13049;DHT22;6591;51.446;5.404;2023-05-03T08:23:50;15.60;82.50
13049;DHT22;6591;51.446;5.404;2023-05-03T08:26:17;15.70;81.70
13049;DHT22;6591;51.446;5.404;2023-05-03T08:28:45;16.70;83.00
13049;DHT22;6591;51.446;5.404;2023-05-03T08:31:12;16.70;83.80
13049;DHT22;6591;51.446;5.404;2023-05-03T08:33:39;17.90;86.10
13049;DHT22;6591;51.446;5.404;2023-05-03T08:36:06;15.80;83.70
13049;DHT22;6591;51.446;5.404;2023-05-03T08:38:34;16.10;83.90
13049;DHT22;6591;51.446;5.404;2023-05-03T08:41:29;18.10;84.00
13049;DHT22;6591;51.446;5.404;2023-05-03T08:43:57;16.50;81.80
13049;DHT22;6591;51.446;5.404;2023-05-03T08:46:26;16.70;82.60
13049;DHT22;6591;51.446;5.404;2023-05-03T08:48:55;17.00;80.80
13049;DHT22;6591;51.446;5.404;2023-05-03T08:51:23;17.20;81.00
13049;DHT22;6591;51.446;5.404;2023-05-03T08:53:51;16.30;78.00
13049;DHT22;6591;51.446;5.404;2023-05-03T08:56:29;18.80;78.10
13049;DHT22;6591;51.446;5.404;2023-05-03T08:59:00;19.60;77.60
13049;DHT22;6591;51.446;5.404;2023-05-03T09:01:35;17.90;78.10
13049;DHT22;6591;51.446;5.404;2023-05-03T09:04:03;18.00;78.70
13049;DHT22;6591;51.446;5.404;2023-05-03T09:06:33;18.20;75.00
13049;DHT22;6591;51.446;5.404;2023-05-03T09:09:02;19.60;76.90
13049;DHT22;6591;51.446;5.404;2023-05-03T09:11:36;18.50;72.30
13049;DHT22;6591;51.446;5.404;2023-05-03T09:14:15;18.60;73.50
13049;DHT22;6591;51.446;5.404;2023-05-03T09:16:45;18.70;72.20
13049;DHT22;6591;51.446;5.404;2023-05-03T09:19:15;19.60;73.80
13049;DHT22;6591;51.446;5.404;2023-05-03T09:21:44;18.80;73.60
13049;DHT22;6591;51.446;5.404;2023-05-03T09:24:19;19.00;74.20
13049;DHT22;6591;51.446;5.404;2023-05-03T09:26:49;19.10;72.00
13049;DHT22;6591;51.446;5.404;2023-05-03T09:32:00;19.40;71.00
13049;DHT22;6591;51.446;5.404;2023-05-03T09:34:34;19.50;71.30
13049;DHT22;6591;51.446;5.404;2023-05-03T09:37:02;19.70;71.60
13049;DHT22;6591;51.446;5.404;2023-05-03T09:39:30;19.90;70.20
13049;DHT22;6591;51.446;5.404;2023-05-03T09:41:57;19.40;69.30
13049;DHT22;6591;51.446;5.404;2023-05-03T09:47:08;20.30;66.50
13049;DHT22;6591;51.446;5.404;2023-05-03T09:49:37;20.40;63.80
13049;DHT22;6591;51.446;5.404;2023-05-03T09:52:06;20.30;65.40
13049;DHT22;6591;51.446;5.404;2023-05-03T09:54:34;20.20;65.90
13049;DHT22;6591;51.446;5.404;2023-05-03T09:57:02;22.00;67.60
13049;DHT22;6591;51.446;5.404;2023-05-03T09:59:32;20.30;66.70
13049;DHT22;6591;51.446;5.404;2023-05-03T10:02:02;20.30;65.50
13049;DHT22;6591;51.446;5.404;2023-05-03T10:04:43;20.90;67.10
13049;DHT22;6591;51.446;5.404;2023-05-03T10:07:17;20.60;65.90
13049;DHT22;6591;51.446;5.404;2023-05-03T10:09:49;20.80;66.20
13049;DHT22;6591;51.446;5.404;2023-05-03T10:12:16;21.10;66.90
13049;DHT22;6591;51.446;5.404;2023-05-03T10:14:46;21.40;66.50
13049;DHT22;6591;51.446;5.404;2023-05-03T10:17:30;21.60;64.00
13049;DHT22;6591;51.446;5.404;2023-05-03T10:20:24;21.90;62.50
13049;DHT22;6591;51.446;5.404;2023-05-03T10:25:34;22.40;61.50
13049;DHT22;6591;51.446;5.404;2023-05-03T10:28:04;22.60;61.60
13049;DHT22;6591;51.446;5.404;2023-05-03T10:30:39;22.80;62.00
13049;DHT22;6591;51.446;5.404;2023-05-03T10:36:05;23.00;59.20
13049;DHT22;6591;51.446;5.404;2023-05-03T10:38:36;23.10;57.80
13049;DHT22;6591;51.446;5.404;2023-05-03T10:41:04;23.20;59.30
13049;DHT22;6591;51.446;5.404;2023-05-03T10:46:01;23.30;57.90
13049;DHT22;6591;51.446;5.404;2023-05-03T10:48:32;23.30;56.80
13049;DHT22;6591;51.446;5.404;2023-05-03T10:53:58;23.30;56.90
13049;DHT22;6591;51.446;5.404;2023-05-03T10:56:26;23.30;57.10
13049;DHT22;6591;51.446;5.404;2023-05-03T10:58:53;24.80;58.10
13049;DHT22;6591;51.446;5.404;2023-05-03T11:01:23;21.30;54.90
13049;DHT22;6591;51.446;5.404;2023-05-03T11:04:04;23.60;56.90
13049;DHT22;6591;51.446;5.404;2023-05-03T11:06:40;23.80;57.30
13049;DHT22;6591;51.446;5.404;2023-05-03T11:09:08;25.70;56.90
13049;DHT22;6591;51.446;5.404;2023-05-03T11:11:39;24.20;54.90
13049;DHT22;6591;51.446;5.404;2023-05-03T11:14:08;24.30;53.80
13049;DHT22;6591;51.446;5.404;2023-05-03T11:16:36;24.30;55.10
13049;DHT22;6591;51.446;5.404;2023-05-03T11:19:06;24.40;55.30
13049;DHT22;6591;51.446;5.404;2023-05-03T11:21:33;24.50;55.00
13049;DHT22;6591;51.446;5.404;2023-05-03T11:24:02;24.70;54.60
13049;DHT22;6591;51.446;5.404;2023-05-03T11:26:37;24.80;53.90
13049;DHT22;6591;51.446;5.404;2023-05-03T11:29:05;24.90;52.40
13049;DHT22;6591;51.446;5.404;2023-05-03T11:31:36;24.90;53.10
13049;DHT22;6591;51.446;5.404;2023-05-03T11:34:04;24.90;51.10
13049;DHT22;6591;51.446;5.404;2023-05-03T11:36:32;24.80;50.80
13049;DHT22;6591;51.446;5.404;2023-05-03T11:38:59;24.70;50.70
13049;DHT22;6591;51.446;5.404;2023-05-03T11:41:26;24.60;51.00
13049;DHT22;6591;51.446;5.404;2023-05-03T11:43:53;24.50;50.80
13049;DHT22;6591;51.446;5.404;2023-05-03T11:46:40;24.30;50.20
13049;DHT22;6591;51.446;5.404;2023-05-03T11:49:08;24.20;50.50
13049;DHT22;6591;51.446;5.404;2023-05-03T11:51:36;24.00;50.20
13049;DHT22;6591;51.446;5.404;2023-05-03T11:54:04;23.90;51.10
13049;DHT22;6591;51.446;5.404;2023-05-03T11:56:55;23.80;51.60
13049;DHT22;6591;51.446;5.404;2023-05-03T11:59:36;23.90;51.40
13049;DHT22;6591;51.446;5.404;2023-05-03T12:02:06;23.80;51.80
13049;DHT22;6591;51.446;5.404;2023-05-03T12:04:36;23.90;52.00
13049;DHT22;6591;51.446;5.404;2023-05-03T12:07:09;23.90;51.90
13049;DHT22;6591;51.446;5.404;2023-05-03T12:09:39;23.90;51.70
13049;DHT22;6591;51.446;5.404;2023-05-03T12:12:07;23.90;51.10
13049;DHT22;6591;51.446;5.404;2023-05-03T12:14:56;23.90;51.80
13049;DHT22;6591;51.446;5.404;2023-05-03T12:17:38;23.90;51.30
13049;DHT22;6591;51.446;5.404;2023-05-03T12:20:21;24.10;51.30
13049;DHT22;6591;51.446;5.404;2023-05-03T12:22:54;24.30;51.00
13049;DHT22;6591;51.446;5.404;2023-05-03T12:25:26;25.80;52.60
13049;DHT22;6591;51.446;5.404;2023-05-03T12:28:01;24.40;51.00
13049;DHT22;6591;51.446;5.404;2023-05-03T12:30:33;25.40;51.50
13049;DHT22;6591;51.446;5.404;2023-05-03T12:33:01;24.40;51.20
13049;DHT22;6591;51.446;5.404;2023-05-03T12:35:31;24.30;51.20
13049;DHT22;6591;51.446;5.404;2023-05-03T12:38:00;24.30;51.30
13049;DHT22;6591;51.446;5.404;2023-05-03T12:40:30;24.50;52.10
13049;DHT22;6591;51.446;5.404;2023-05-03T12:43:01;24.60;50.60
13049;DHT22;6591;51.446;5.404;2023-05-03T12:45:29;24.80;51.80
13049;DHT22;6591;51.446;5.404;2023-05-03T12:48:00;25.00;51.40
13049;DHT22;6591;51.446;5.404;2023-05-03T12:50:29;25.10;49.80
13049;DHT22;6591;51.446;5.404;2023-05-03T12:52:57;25.10;49.30
13049;DHT22;6591;51.446;5.404;2023-05-03T12:55:28;25.10;49.90
13049;DHT22;6591;51.446;5.404;2023-05-03T12:58:07;25.10;49.60
13049;DHT22;6591;51.446;5.404;2023-05-03T13:00:37;25.20;48.90
13049;DHT22;6591;51.446;5.404;2023-05-03T13:03:24;25.10;49.70
13049;DHT22;6591;51.446;5.404;2023-05-03T13:05:59;25.10;50.00
13049;DHT22;6591;51.446;5.404;2023-05-03T13:08:31;25.20;50.80
13049;DHT22;6591;51.446;5.404;2023-05-03T13:11:01;25.30;50.40
13049;DHT22;6591;51.446;5.404;2023-05-03T13:13:28;25.50;49.60
13049;DHT22;6591;51.446;5.404;2023-05-03T13:15:55;25.50;48.60
13049;DHT22;6591;51.446;5.404;2023-05-03T13:18:22;25.60;49.70
13049;DHT22;6591;51.446;5.404;2023-05-03T13:20:49;25.70;49.30
13049;DHT22;6591;51.446;5.404;2023-05-03T13:23:17;25.90;49.10
13049;DHT22;6591;51.446;5.404;2023-05-03T13:25:44;26.00;48.70
13049;DHT22;6591;51.446;5.404;2023-05-03T13:28:11;26.10;47.90
13049;DHT22;6591;51.446;5.404;2023-05-03T13:30:38;26.10;47.50
13049;DHT22;6591;51.446;5.404;2023-05-03T13:33:05;26.00;47.10
13049;DHT22;6591;51.446;5.404;2023-05-03T13:35:33;25.80;47.40
13049;DHT22;6591;51.446;5.404;2023-05-03T13:38:01;25.80;46.50
13049;DHT22;6591;51.446;5.404;2023-05-03T13:40:28;25.60;47.70
13049;DHT22;6591;51.446;5.404;2023-05-03T13:42:55;25.50;47.60
13049;DHT22;6591;51.446;5.404;2023-05-03T13:45:22;25.40;47.60
13049;DHT22;6591;51.446;5.404;2023-05-03T13:47:48;25.40;47.80
13049;DHT22;6591;51.446;5.404;2023-05-03T13:50:18;25.50;48.90
13049;DHT22;6591;51.446;5.404;2023-05-03T13:52:46;25.70;48.50
13049;DHT22;6591;51.446;5.404;2023-05-03T13:55:13;26.10;48.80
13049;DHT22;6591;51.446;5.404;2023-05-03T13:57:40;26.20;47.30
13049;DHT22;6591;51.446;5.404;2023-05-03T14:00:08;26.40;48.00
13049;DHT22;6591;51.446;5.404;2023-05-03T14:02:35;26.60;48.40
13049;DHT22;6591;51.446;5.404;2023-05-03T14:05:03;26.80;47.40
13049;DHT22;6591;51.446;5.404;2023-05-03T14:07:31;27.00;47.40
13049;DHT22;6591;51.446;5.404;2023-05-03T14:09:58;27.20;47.50
13049;DHT22;6591;51.446;5.404;2023-05-03T14:12:25;27.40;47.10
13049;DHT22;6591;51.446;5.404;2023-05-03T14:14:52;26.60;44.70
13049;DHT22;6591;51.446;5.404;2023-05-03T14:17:19;27.50;45.10
13049;DHT22;6591;51.446;5.404;2023-05-03T14:19:48;27.50;45.90
13049;DHT22;6591;51.446;5.404;2023-05-03T14:22:15;27.50;46.10
13049;DHT22;6591;51.446;5.404;2023-05-03T14:24:42;27.60;45.50
13049;DHT22;6591;51.446;5.404;2023-05-03T14:27:10;27.70;45.60
13049;DHT22;6591;51.446;5.404;2023-05-03T14:29:38;27.90;44.40
13049;DHT22;6591;51.446;5.404;2023-05-03T14:32:05;28.00;45.40
13049;DHT22;6591;51.446;5.404;2023-05-03T14:34:32;27.90;44.10
13049;DHT22;6591;51.446;5.404;2023-05-03T14:36:59;28.20;44.30
13049;DHT22;6591;51.446;5.404;2023-05-03T14:39:27;28.30;44.70
13049;DHT22;6591;51.446;5.404;2023-05-03T14:41:54;28.40;45.00
13049;DHT22;6591;51.446;5.404;2023-05-03T14:44:22;28.50;44.80
13049;DHT22;6591;51.446;5.404;2023-05-03T14:46:49;28.70;44.40
13049;DHT22;6591;51.446;5.404;2023-05-03T14:49:18;28.90;44.30
13049;DHT22;6591;51.446;5.404;2023-05-03T14:51:46;29.00;44.10
13049;DHT22;6591;51.446;5.404;2023-05-03T14:54:13;29.00;43.30
13049;DHT22;6591;51.446;5.404;2023-05-03T14:56:40;29.00;41.80
13049;DHT22;6591;51.446;5.404;2023-05-03T14:59:07;28.90;42.80
13049;DHT22;6591;51.446;5.404;2023-05-03T15:01:34;28.90;43.80
13049;DHT22;6591;51.446;5.404;2023-05-03T15:04:03;28.80;42.10
13049;DHT22;6591;51.446;5.404;2023-05-03T15:06:33;28.70;41.80
13049;DHT22;6591;51.446;5.404;2023-05-03T15:09:04;28.60;41.80
13049;DHT22;6591;51.446;5.404;2023-05-03T15:11:33;28.40;42.10
13049;DHT22;6591;51.446;5.404;2023-05-03T15:14:01;28.20;40.70
13049;DHT22;6591;51.446;5.404;2023-05-03T15:16:28;28.00;41.50
13049;DHT22;6591;51.446;5.404;2023-05-03T15:18:55;27.80;41.90
13049;DHT22;6591;51.446;5.404;2023-05-03T15:21:22;27.60;41.60
13049;DHT22;6591;51.446;5.404;2023-05-03T15:23:49;27.40;41.80
13049;DHT22;6591;51.446;5.404;2023-05-03T15:26:17;27.30;42.20
13049;DHT22;6591;51.446;5.404;2023-05-03T15:28:44;27.20;43.00
13049;DHT22;6591;51.446;5.404;2023-05-03T15:31:12;27.30;42.80
13049;DHT22;6591;51.446;5.404;2023-05-03T15:33:41;27.40;43.70
13049;DHT22;6591;51.446;5.404;2023-05-03T15:36:10;27.50;43.00
13049;DHT22;6591;51.446;5.404;2023-05-03T15:38:39;27.70;43.50
13049;DHT22;6591;51.446;5.404;2023-05-03T15:41:06;28.00;43.60
13049;DHT22;6591;51.446;5.404;2023-05-03T15:43:34;28.20;43.70
13049;DHT22;6591;51.446;5.404;2023-05-03T15:46:01;28.40;42.80
13049;DHT22;6591;51.446;5.404;2023-05-03T15:48:28;28.50;41.90
13049;DHT22;6591;51.446;5.404;2023-05-03T15:50:56;28.60;42.40
13049;DHT22;6591;51.446;5.404;2023-05-03T15:53:25;28.70;41.90
13049;DHT22;6591;51.446;5.404;2023-05-03T15:55:53;28.80;40.80
13049;DHT22;6591;51.446;5.404;2023-05-03T15:58:24;28.70;40.20
13049;DHT22;6591;51.446;5.404;2023-05-03T16:00:56;28.60;40.60
13049;DHT22;6591;51.446;5.404;2023-05-03T16:03:25;28.40;40.00
13049;DHT22;6591;51.446;5.404;2023-05-03T16:05:54;28.30;40.40
13049;DHT22;6591;51.446;5.404;2023-05-03T16:08:22;28.10;39.70
13049;DHT22;6591;51.446;5.404;2023-05-03T16:10:49;27.90;40.30
13049;DHT22;6591;51.446;5.404;2023-05-03T16:13:16;27.70;40.30
13049;DHT22;6591;51.446;5.404;2023-05-03T16:15:44;27.60;41.10
13049;DHT22;6591;51.446;5.404;2023-05-03T16:18:11;27.10;41.20
13049;DHT22;6591;51.446;5.404;2023-05-03T16:20:39;27.60;41.40
13049;DHT22;6591;51.446;5.404;2023-05-03T16:23:07;27.60;42.10
13049;DHT22;6591;51.446;5.404;2023-05-03T16:25:34;27.70;41.10
13049;DHT22;6591;51.446;5.404;2023-05-03T16:28:01;27.80;41.10
13049;DHT22;6591;51.446;5.404;2023-05-03T16:30:29;27.80;41.20
13049;DHT22;6591;51.446;5.404;2023-05-03T16:32:56;28.00;41.20